sensor_id;sensor_type;location;lat;lon;timestamp;P1;durP1;ratioP1;P2;durP2;ratioP2
53503;SDS011;39387;50.998;22.340;2023-03-14T00:01:52;7.32;;;3.95;;
53503;SDS011;39387;50.998;22.340;2023-03-14T00:04:19;7.95;;;3.25;;
53503;SDS011;39387;50.998;22.340;2023-03-14T00:06:46;7.72;;;3.80;;
53503;SDS011;39387;50.998;22.340;2023-03-14T00:09:15;6.68;;;3.70;;
53503;SDS011;39387;50.998;22.340;2023-03-14T00:11:42;5.47;;;4.07;;
53503;SDS011;39387;50.998;22.340;2023-03-14T00:14:10;8.27;;;3.80;;
53503;SDS011;39387;50.998;22.340;2023-03-14T00:16:37;8.63;;;3.70;;
53503;SDS011;39387;50.998;22.340;2023-03-14T00:19:06;5.28;;;3.60;;
53503;SDS011;39387;50.998;22.340;2023-03-14T00:21:33;5.60;;;3.70;;
53503;SDS011;39387;50.998;22.340;2023-03-14T00:24:01;5.10;;;3.72;;
53503;SDS011;39387;50.998;22.340;2023-03-14T00:26:28;9.02;;;3.60;;
53503;SDS011;39387;50.998;22.340;2023-03-14T00:28:55;5.55;;;3.53;;
53503;SDS011;39387;50.998;22.340;2023-03-14T00:31:23;4.47;;;3.35;;
53503;SDS011;39387;50.998;22.340;2023-03-14T00:33:51;6.63;;;3.78;;
53503;SDS011;39387;50.998;22.340;2023-03-14T00:36:21;7.10;;;3.88;;
53503;SDS011;39387;50.998;22.340;2023-03-14T00:38:49;6.63;;;3.75;;
53503;SDS011;39387;50.998;22.340;2023-03-14T00:41:18;4.90;;;3.25;;
53503;SDS011;39387;50.998;22.340;2023-03-14T00:43:48;5.60;;;3.43;;
53503;SDS011;39387;50.998;22.340;2023-03-14T00:46:15;8.52;;;3.85;;
53503;SDS011;39387;50.998;22.340;2023-03-14T00:48:45;5.80;;;3.47;;
53503;SDS011;39387;50.998;22.340;2023-03-14T00:51:13;4.78;;;3.38;;
53503;SDS011;39387;50.998;22.340;2023-03-14T00:53:42;6.45;;;3.75;;
53503;SDS011;39387;50.998;22.340;2023-03-14T00:56:11;5.72;;;3.75;;
53503;SDS011;39387;50.998;22.340;2023-03-14T00:58:39;5.88;;;3.38;;
53503;SDS011;39387;50.998;22.340;2023-03-14T01:01:07;6.25;;;3.53;;
53503;SDS011;39387;50.998;22.340;2023-03-14T01:03:35;10.25;;;3.50;;
53503;SDS011;39387;50.998;22.340;2023-03-14T01:06:07;7.47;;;3.25;;
53503;SDS011;39387;50.998;22.340;2023-03-14T01:08:36;9.63;;;3.80;;
53503;SDS011;39387;50.998;22.340;2023-03-14T01:11:08;6.32;;;3.53;;
53503;SDS011;39387;50.998;22.340;2023-03-14T01:13:39;5.07;;;3.50;;
53503;SDS011;39387;50.998;22.340;2023-03-14T01:16:07;7.82;;;3.80;;
53503;SDS011;39387;50.998;22.340;2023-03-14T01:18:36;5.38;;;3.38;;
53503;SDS011;39387;50.998;22.340;2023-03-14T01:21:09;5.78;;;2.97;;
53503;SDS011;39387;50.998;22.340;2023-03-14T01:23:38;4.20;;;2.88;;
53503;SDS011;39387;50.998;22.340;2023-03-14T01:26:09;5.93;;;3.45;;
53503;SDS011;39387;50.998;22.340;2023-03-14T01:28:37;4.60;;;3.30;;
53503;SDS011;39387;50.998;22.340;2023-03-14T01:31:05;4.80;;;2.80;;
53503;SDS011;39387;50.998;22.340;2023-03-14T01:33:34;5.50;;;3.05;;
53503;SDS011;39387;50.998;22.340;2023-03-14T01:36:02;4.93;;;2.97;;
53503;SDS011;39387;50.998;22.340;2023-03-14T01:38:30;5.50;;;3.50;;
53503;SDS011;39387;50.998;22.340;2023-03-14T01:40:58;4.05;;;2.63;;
53503;SDS011;39387;50.998;22.340;2023-03-14T01:43:27;5.05;;;3.25;;
53503;SDS011;39387;50.998;22.340;2023-03-14T01:51:27;4.90;;;3.17;;
53503;SDS011;39387;50.998;22.340;2023-03-14T01:53:59;5.30;;;3.10;;
53503;SDS011;39387;50.998;22.340;2023-03-14T01:56:31;5.03;;;3.33;;
53503;SDS011;39387;50.998;22.340;2023-03-14T01:59:00;5.57;;;3.15;;
53503;SDS011;39387;50.998;22.340;2023-03-14T02:03:58;4.78;;;2.92;;
53503;SDS011;39387;50.998;22.340;2023-03-14T02:06:29;5.18;;;3.30;;
53503;SDS011;39387;50.998;22.340;2023-03-14T02:08:59;5.85;;;3.40;;
53503;SDS011;39387;50.998;22.340;2023-03-14T02:11:27;5.10;;;2.75;;
53503;SDS011;39387;50.998;22.340;2023-03-14T02:13:56;6.20;;;2.80;;
53503;SDS011;39387;50.998;22.340;2023-03-14T02:16:26;3.70;;;2.85;;
53503;SDS011;39387;50.998;22.340;2023-03-14T02:18:54;6.65;;;2.97;;
53503;SDS011;39387;50.998;22.340;2023-03-14T02:21:23;3.55;;;2.60;;
53503;SDS011;39387;50.998;22.340;2023-03-14T02:23:57;5.40;;;2.85;;
53503;SDS011;39387;50.998;22.340;2023-03-14T02:26:28;4.47;;;2.60;;
53503;SDS011;39387;50.998;22.340;2023-03-14T02:29:00;4.55;;;2.75;;
53503;SDS011;39387;50.998;22.340;2023-03-14T02:31:28;4.43;;;2.80;;
53503;SDS011;39387;50.998;22.340;2023-03-14T02:33:55;4.78;;;2.55;;
53503;SDS011;39387;50.998;22.340;2023-03-14T02:36:23;5.15;;;2.70;;
53503;SDS011;39387;50.998;22.340;2023-03-14T02:38:52;3.95;;;2.40;;
53503;SDS011;39387;50.998;22.340;2023-03-14T02:41:22;4.20;;;2.72;;
53503;SDS011;39387;50.998;22.340;2023-03-14T02:43:50;3.63;;;2.60;;
53503;SDS011;39387;50.998;22.340;2023-03-14T02:46:20;4.60;;;2.70;;
53503;SDS011;39387;50.998;22.340;2023-03-14T02:48:48;5.70;;;2.88;;
53503;SDS011;39387;50.998;22.340;2023-03-14T02:51:19;5.60;;;2.90;;
53503;SDS011;39387;50.998;22.340;2023-03-14T02:53:47;4.78;;;2.83;;
53503;SDS011;39387;50.998;22.340;2023-03-14T02:56:14;4.00;;;3.00;;
53503;SDS011;39387;50.998;22.340;2023-03-14T02:58:41;5.03;;;2.53;;
53503;SDS011;39387;50.998;22.340;2023-03-14T03:01:09;6.75;;;2.90;;
53503;SDS011;39387;50.998;22.340;2023-03-14T03:03:38;4.40;;;2.55;;
53503;SDS011;39387;50.998;22.340;2023-03-14T03:06:05;4.10;;;2.70;;
53503;SDS011;39387;50.998;22.340;2023-03-14T03:08:33;5.65;;;2.83;;
53503;SDS011;39387;50.998;22.340;2023-03-14T03:11:01;4.63;;;2.50;;
53503;SDS011;39387;50.998;22.340;2023-03-14T03:13:29;4.78;;;2.42;;
53503;SDS011;39387;50.998;22.340;2023-03-14T03:15:56;4.40;;;2.50;;
53503;SDS011;39387;50.998;22.340;2023-03-14T03:18:24;4.25;;;2.55;;
53503;SDS011;39387;50.998;22.340;2023-03-14T03:20:52;4.55;;;2.78;;
53503;SDS011;39387;50.998;22.340;2023-03-14T03:23:20;5.75;;;2.78;;
53503;SDS011;39387;50.998;22.340;2023-03-14T03:25:48;3.72;;;2.40;;
53503;SDS011;39387;50.998;22.340;2023-03-14T03:28:17;4.25;;;2.70;;
53503;SDS011;39387;50.998;22.340;2023-03-14T03:30:44;5.55;;;2.83;;
53503;SDS011;39387;50.998;22.340;2023-03-14T03:33:12;3.20;;;2.50;;
53503;SDS011;39387;50.998;22.340;2023-03-14T03:35:43;4.60;;;2.70;;
53503;SDS011;39387;50.998;22.340;2023-03-14T03:38:13;4.25;;;2.92;;
53503;SDS011;39387;50.998;22.340;2023-03-14T03:40:41;3.80;;;2.90;;
53503;SDS011;39387;50.998;22.340;2023-03-14T03:43:08;4.13;;;2.80;;
53503;SDS011;39387;50.998;22.340;2023-03-14T03:45:36;4.60;;;3.17;;
53503;SDS011;39387;50.998;22.340;2023-03-14T03:48:04;5.25;;;2.70;;
53503;SDS011;39387;50.998;22.340;2023-03-14T03:50:31;3.25;;;2.40;;
53503;SDS011;39387;50.998;22.340;2023-03-14T03:52:59;4.95;;;2.90;;
53503;SDS011;39387;50.998;22.340;2023-03-14T03:55:28;4.75;;;2.63;;
53503;SDS011;39387;50.998;22.340;2023-03-14T03:57:55;5.28;;;2.67;;
53503;SDS011;39387;50.998;22.340;2023-03-14T04:00:23;3.92;;;3.00;;
53503;SDS011;39387;50.998;22.340;2023-03-14T04:02:50;4.60;;;2.63;;
53503;SDS011;39387;50.998;22.340;2023-03-14T04:05:18;5.90;;;2.67;;
53503;SDS011;39387;50.998;22.340;2023-03-14T04:07:46;3.38;;;2.42;;
53503;SDS011;39387;50.998;22.340;2023-03-14T04:10:13;4.13;;;2.67;;
53503;SDS011;39387;50.998;22.340;2023-03-14T04:12:43;4.93;;;2.90;;
53503;SDS011;39387;50.998;22.340;2023-03-14T04:15:10;2.55;;;2.35;;
53503;SDS011;39387;50.998;22.340;2023-03-14T04:17:37;3.88;;;2.38;;
53503;SDS011;39387;50.998;22.340;2023-03-14T04:20:05;3.90;;;2.60;;
53503;SDS011;39387;50.998;22.340;2023-03-14T04:22:36;4.22;;;2.50;;
53503;SDS011;39387;50.998;22.340;2023-03-14T04:25:04;4.28;;;2.30;;
53503;SDS011;39387;50.998;22.340;2023-03-14T04:27:33;3.30;;;2.20;;
53503;SDS011;39387;50.998;22.340;2023-03-14T04:30:02;6.10;;;2.33;;
53503;SDS011;39387;50.998;22.340;2023-03-14T04:32:30;3.88;;;2.33;;
53503;SDS011;39387;50.998;22.340;2023-03-14T04:34:57;3.33;;;2.20;;
53503;SDS011;39387;50.998;22.340;2023-03-14T04:37:25;3.42;;;2.25;;
53503;SDS011;39387;50.998;22.340;2023-03-14T04:39:52;3.83;;;2.00;;
53503;SDS011;39387;50.998;22.340;2023-03-14T04:42:20;4.18;;;2.00;;
53503;SDS011;39387;50.998;22.340;2023-03-14T04:44:47;5.30;;;2.15;;
53503;SDS011;39387;50.998;22.340;2023-03-14T04:47:16;2.55;;;1.77;;
53503;SDS011;39387;50.998;22.340;2023-03-14T04:49:43;4.53;;;2.35;;
53503;SDS011;39387;50.998;22.340;2023-03-14T04:52:11;4.13;;;2.10;;
53503;SDS011;39387;50.998;22.340;2023-03-14T04:54:40;3.03;;;2.13;;
53503;SDS011;39387;50.998;22.340;2023-03-14T04:57:07;2.80;;;2.17;;
53503;SDS011;39387;50.998;22.340;2023-03-14T04:59:34;2.55;;;1.88;;
53503;SDS011;39387;50.998;22.340;2023-03-14T05:02:02;2.90;;;1.67;;
53503;SDS011;39387;50.998;22.340;2023-03-14T05:04:31;3.45;;;2.10;;
53503;SDS011;39387;50.998;22.340;2023-03-14T05:06:59;4.53;;;2.03;;
53503;SDS011;39387;50.998;22.340;2023-03-14T05:09:27;2.75;;;1.85;;
53503;SDS011;39387;50.998;22.340;2023-03-14T05:11:54;2.55;;;1.88;;
53503;SDS011;39387;50.998;22.340;2023-03-14T05:14:22;2.72;;;1.98;;
53503;SDS011;39387;50.998;22.340;2023-03-14T05:16:49;2.90;;;2.17;;
53503;SDS011;39387;50.998;22.340;2023-03-14T05:19:17;2.88;;;1.85;;
53503;SDS011;39387;50.998;22.340;2023-03-14T05:21:46;3.88;;;2.30;;
53503;SDS011;39387;50.998;22.340;2023-03-14T05:24:13;3.85;;;2.30;;
53503;SDS011;39387;50.998;22.340;2023-03-14T05:26:40;2.05;;;1.77;;
53503;SDS011;39387;50.998;22.340;2023-03-14T05:29:08;3.28;;;1.90;;
53503;SDS011;39387;50.998;22.340;2023-03-14T05:31:35;3.65;;;2.10;;
53503;SDS011;39387;50.998;22.340;2023-03-14T05:34:03;3.20;;;2.03;;
53503;SDS011;39387;50.998;22.340;2023-03-14T05:36:30;2.33;;;1.90;;
53503;SDS011;39387;50.998;22.340;2023-03-14T05:38:59;2.83;;;1.90;;
53503;SDS011;39387;50.998;22.340;2023-03-14T05:41:26;3.70;;;1.95;;
53503;SDS011;39387;50.998;22.340;2023-03-14T05:43:55;2.33;;;1.60;;
53503;SDS011;39387;50.998;22.340;2023-03-14T05:46:22;3.50;;;1.92;;
53503;SDS011;39387;50.998;22.340;2023-03-14T05:48:50;3.17;;;2.22;;
53503;SDS011;39387;50.998;22.340;2023-03-14T05:51:17;3.33;;;1.98;;
53503;SDS011;39387;50.998;22.340;2023-03-14T05:53:45;3.80;;;2.10;;
53503;SDS011;39387;50.998;22.340;2023-03-14T05:56:13;3.20;;;1.95;;
53503;SDS011;39387;50.998;22.340;2023-03-14T05:58:41;3.83;;;1.90;;
53503;SDS011;39387;50.998;22.340;2023-03-14T06:01:08;4.35;;;1.88;;
53503;SDS011;39387;50.998;22.340;2023-03-14T06:03:36;3.08;;;1.90;;
53503;SDS011;39387;50.998;22.340;2023-03-14T06:06:03;3.25;;;2.53;;
53503;SDS011;39387;50.998;22.340;2023-03-14T06:08:32;2.88;;;2.00;;
53503;SDS011;39387;50.998;22.340;2023-03-14T06:11:00;3.63;;;2.03;;
53503;SDS011;39387;50.998;22.340;2023-03-14T06:13:31;5.47;;;2.10;;
53503;SDS011;39387;50.998;22.340;2023-03-14T06:15:58;3.05;;;1.90;;
53503;SDS011;39387;50.998;22.340;2023-03-14T06:18:26;3.47;;;1.80;;
53503;SDS011;39387;50.998;22.340;2023-03-14T06:20:53;2.33;;;1.95;;
53503;SDS011;39387;50.998;22.340;2023-03-14T06:23:22;5.03;;;1.90;;
53503;SDS011;39387;50.998;22.340;2023-03-14T06:25:50;2.97;;;1.88;;
53503;SDS011;39387;50.998;22.340;2023-03-14T06:28:18;7.28;;;3.00;;
53503;SDS011;39387;50.998;22.340;2023-03-14T06:30:46;3.10;;;2.20;;
53503;SDS011;39387;50.998;22.340;2023-03-14T06:33:14;2.33;;;1.90;;
53503;SDS011;39387;50.998;22.340;2023-03-14T06:35:41;5.25;;;2.15;;
53503;SDS011;39387;50.998;22.340;2023-03-14T06:38:09;3.78;;;2.13;;
53503;SDS011;39387;50.998;22.340;2023-03-14T06:40:36;3.10;;;1.80;;
53503;SDS011;39387;50.998;22.340;2023-03-14T06:43:04;2.90;;;2.10;;
53503;SDS011;39387;50.998;22.340;2023-03-14T06:45:31;3.88;;;1.88;;
53503;SDS011;39387;50.998;22.340;2023-03-14T06:48:00;2.92;;;2.05;;
53503;SDS011;39387;50.998;22.340;2023-03-14T06:50:28;3.13;;;2.13;;
53503;SDS011;39387;50.998;22.340;2023-03-14T06:52:55;2.28;;;2.03;;
53503;SDS011;39387;50.998;22.340;2023-03-14T06:55:23;3.38;;;1.95;;
53503;SDS011;39387;50.998;22.340;2023-03-14T06:57:51;5.93;;;2.33;;
53503;SDS011;39387;50.998;22.340;2023-03-14T07:00:19;3.33;;;2.03;;
53503;SDS011;39387;50.998;22.340;2023-03-14T07:02:47;2.92;;;2.08;;
53503;SDS011;39387;50.998;22.340;2023-03-14T07:05:15;5.32;;;2.00;;
53503;SDS011;39387;50.998;22.340;2023-03-14T07:07:43;4.95;;;2.05;;
53503;SDS011;39387;50.998;22.340;2023-03-14T07:10:11;4.18;;;2.10;;
53503;SDS011;39387;50.998;22.340;2023-03-14T07:12:38;3.67;;;2.35;;
53503;SDS011;39387;50.998;22.340;2023-03-14T07:15:06;3.65;;;2.15;;
53503;SDS011;39387;50.998;22.340;2023-03-14T07:17:34;3.03;;;2.03;;
53503;SDS011;39387;50.998;22.340;2023-03-14T07:20:02;3.90;;;2.15;;
53503;SDS011;39387;50.998;22.340;2023-03-14T07:22:32;3.70;;;2.05;;
53503;SDS011;39387;50.998;22.340;2023-03-14T07:25:00;4.82;;;2.38;;
53503;SDS011;39387;50.998;22.340;2023-03-14T07:27:27;3.25;;;2.10;;
53503;SDS011;39387;50.998;22.340;2023-03-14T07:29:54;2.25;;;1.85;;
53503;SDS011;39387;50.998;22.340;2023-03-14T07:32:22;5.13;;;2.70;;
53503;SDS011;39387;50.998;22.340;2023-03-14T07:34:49;4.25;;;2.83;;
53503;SDS011;39387;50.998;22.340;2023-03-14T07:37:17;11.35;;;5.25;;
53503;SDS011;39387;50.998;22.340;2023-03-14T07:39:46;11.93;;;6.88;;
53503;SDS011;39387;50.998;22.340;2023-03-14T07:42:13;9.40;;;4.72;;
53503;SDS011;39387;50.998;22.340;2023-03-14T07:44:40;5.20;;;3.40;;
53503;SDS011;39387;50.998;22.340;2023-03-14T07:47:08;4.35;;;2.72;;
53503;SDS011;39387;50.998;22.340;2023-03-14T07:49:35;3.13;;;2.15;;
53503;SDS011;39387;50.998;22.340;2023-03-14T07:52:03;3.65;;;2.10;;
53503;SDS011;39387;50.998;22.340;2023-03-14T07:54:30;3.88;;;2.22;;
53503;SDS011;39387;50.998;22.340;2023-03-14T07:57:00;3.05;;;2.22;;
53503;SDS011;39387;50.998;22.340;2023-03-14T07:59:27;2.60;;;1.98;;
53503;SDS011;39387;50.998;22.340;2023-03-14T08:01:54;4.38;;;2.17;;
53503;SDS011;39387;50.998;22.340;2023-03-14T08:04:21;3.13;;;2.17;;
53503;SDS011;39387;50.998;22.340;2023-03-14T08:06:49;3.88;;;2.40;;
53503;SDS011;39387;50.998;22.340;2023-03-14T08:09:16;3.90;;;2.20;;
53503;SDS011;39387;50.998;22.340;2023-03-14T08:11:44;2.38;;;1.98;;
53503;SDS011;39387;50.998;22.340;2023-03-14T08:14:13;3.10;;;2.10;;
53503;SDS011;39387;50.998;22.340;2023-03-14T08:16:40;2.60;;;1.90;;
53503;SDS011;39387;50.998;22.340;2023-03-14T08:19:07;3.25;;;2.17;;
53503;SDS011;39387;50.998;22.340;2023-03-14T08:21:35;3.47;;;1.85;;
53503;SDS011;39387;50.998;22.340;2023-03-14T08:24:02;3.15;;;2.25;;
53503;SDS011;39387;50.998;22.340;2023-03-14T08:26:30;2.90;;;1.90;;
53503;SDS011;39387;50.998;22.340;2023-03-14T08:28:57;4.22;;;2.67;;
53503;SDS011;39387;50.998;22.340;2023-03-14T08:31:26;4.40;;;2.88;;
53503;SDS011;39387;50.998;22.340;2023-03-14T08:33:53;4.90;;;2.28;;
53503;SDS011;39387;50.998;22.340;2023-03-14T08:36:21;2.78;;;1.98;;
53503;SDS011;39387;50.998;22.340;2023-03-14T08:38:48;3.70;;;2.30;;
53503;SDS011;39387;50.998;22.340;2023-03-14T08:41:16;3.95;;;2.78;;
53503;SDS011;39387;50.998;22.340;2023-03-14T08:43:43;3.47;;;2.17;;
53503;SDS011;39387;50.998;22.340;2023-03-14T08:46:10;3.33;;;2.00;;
53503;SDS011;39387;50.998;22.340;2023-03-14T08:48:39;2.60;;;2.08;;
53503;SDS011;39387;50.998;22.340;2023-03-14T08:51:07;2.92;;;2.17;;
53503;SDS011;39387;50.998;22.340;2023-03-14T08:53:36;3.90;;;2.38;;
53503;SDS011;39387;50.998;22.340;2023-03-14T08:56:04;3.50;;;2.15;;
53503;SDS011;39387;50.998;22.340;2023-03-14T08:58:32;2.95;;;2.15;;
53503;SDS011;39387;50.998;22.340;2023-03-14T09:00:59;3.47;;;1.98;;
53503;SDS011;39387;50.998;22.340;2023-03-14T09:03:27;3.45;;;2.20;;
53503;SDS011;39387;50.998;22.340;2023-03-14T09:05:56;3.05;;;1.90;;
53503;SDS011;39387;50.998;22.340;2023-03-14T09:08:29;5.00;;;1.92;;
53503;SDS011;39387;50.998;22.340;2023-03-14T09:10:56;4.30;;;2.15;;
53503;SDS011;39387;50.998;22.340;2023-03-14T09:13:24;3.10;;;2.20;;
53503;SDS011;39387;50.998;22.340;2023-03-14T09:15:51;4.88;;;2.40;;
53503;SDS011;39387;50.998;22.340;2023-03-14T09:18:19;3.13;;;1.90;;
53503;SDS011;39387;50.998;22.340;2023-03-14T09:20:47;3.10;;;2.00;;
53503;SDS011;39387;50.998;22.340;2023-03-14T09:23:15;2.85;;;1.90;;
53503;SDS011;39387;50.998;22.340;2023-03-14T09:25:43;4.22;;;2.40;;
53503;SDS011;39387;50.998;22.340;2023-03-14T09:28:10;4.53;;;2.47;;
53503;SDS011;39387;50.998;22.340;2023-03-14T09:30:38;3.63;;;2.75;;
53503;SDS011;39387;50.998;22.340;2023-03-14T09:33:06;4.47;;;2.80;;
53503;SDS011;39387;50.998;22.340;2023-03-14T09:35:33;4.32;;;2.70;;
53503;SDS011;39387;50.998;22.340;2023-03-14T09:38:00;4.13;;;2.20;;
53503;SDS011;39387;50.998;22.340;2023-03-14T09:40:31;2.55;;;1.98;;
53503;SDS011;39387;50.998;22.340;2023-03-14T09:43:01;3.75;;;2.25;;
53503;SDS011;39387;50.998;22.340;2023-03-14T09:45:29;2.90;;;1.90;;
53503;SDS011;39387;50.998;22.340;2023-03-14T09:47:59;2.83;;;1.90;;
53503;SDS011;39387;50.998;22.340;2023-03-14T09:50:31;2.58;;;1.80;;
53503;SDS011;39387;50.998;22.340;2023-03-14T09:53:03;4.10;;;1.60;;
53503;SDS011;39387;50.998;22.340;2023-03-14T09:55:33;1.63;;;1.53;;
53503;SDS011;39387;50.998;22.340;2023-03-14T09:58:02;3.38;;;2.30;;
53503;SDS011;39387;50.998;22.340;2023-03-14T10:00:32;5.55;;;2.13;;
53503;SDS011;39387;50.998;22.340;2023-03-14T10:03:00;2.88;;;1.73;;
53503;SDS011;39387;50.998;22.340;2023-03-14T10:05:33;2.70;;;1.95;;
53503;SDS011;39387;50.998;22.340;2023-03-14T10:08:00;3.03;;;2.10;;
53503;SDS011;39387;50.998;22.340;2023-03-14T10:10:28;2.58;;;1.90;;
53503;SDS011;39387;50.998;22.340;2023-03-14T10:12:57;3.75;;;2.10;;
53503;SDS011;39387;50.998;22.340;2023-03-14T10:15:26;2.45;;;1.95;;
53503;SDS011;39387;50.998;22.340;2023-03-14T10:17:58;3.72;;;2.50;;
53503;SDS011;39387;50.998;22.340;2023-03-14T10:20:27;3.83;;;2.10;;
53503;SDS011;39387;50.998;22.340;2023-03-14T10:22:59;4.60;;;2.10;;
53503;SDS011;39387;50.998;22.340;2023-03-14T10:25:28;3.78;;;1.92;;
53503;SDS011;39387;50.998;22.340;2023-03-14T10:27:57;3.60;;;2.15;;
53503;SDS011;39387;50.998;22.340;2023-03-14T10:30:30;2.58;;;2.10;;
53503;SDS011;39387;50.998;22.340;2023-03-14T10:33:09;3.97;;;2.03;;
53503;SDS011;39387;50.998;22.340;2023-03-14T10:35:37;2.72;;;2.00;;
53503;SDS011;39387;50.998;22.340;2023-03-14T10:38:04;3.75;;;2.00;;
53503;SDS011;39387;50.998;22.340;2023-03-14T10:40:32;2.25;;;1.73;;
53503;SDS011;39387;50.998;22.340;2023-03-14T10:43:03;3.67;;;2.10;;
53503;SDS011;39387;50.998;22.340;2023-03-14T10:45:33;4.60;;;1.98;;
53503;SDS011;39387;50.998;22.340;2023-03-14T10:48:20;3.58;;;1.88;;
53503;SDS011;39387;50.998;22.340;2023-03-14T10:50:50;2.42;;;2.00;;
53503;SDS011;39387;50.998;22.340;2023-03-14T10:53:21;3.20;;;2.00;;
53503;SDS011;39387;50.998;22.340;2023-03-14T10:55:49;4.00;;;2.22;;
53503;SDS011;39387;50.998;22.340;2023-03-14T10:58:19;3.80;;;2.10;;
53503;SDS011;39387;50.998;22.340;2023-03-14T11:00:50;3.53;;;2.20;;
53503;SDS011;39387;50.998;22.340;2023-03-14T11:03:20;3.33;;;2.20;;
53503;SDS011;39387;50.998;22.340;2023-03-14T11:05:49;3.05;;;1.90;;
53503;SDS011;39387;50.998;22.340;2023-03-14T11:08:22;4.05;;;2.00;;
53503;SDS011;39387;50.998;22.340;2023-03-14T11:10:53;3.35;;;2.20;;
53503;SDS011;39387;50.998;22.340;2023-03-14T11:13:35;4.15;;;2.40;;
53503;SDS011;39387;50.998;22.340;2023-03-14T11:16:07;3.85;;;2.20;;
53503;SDS011;39387;50.998;22.340;2023-03-14T11:18:47;2.30;;;2.10;;
53503;SDS011;39387;50.998;22.340;2023-03-14T11:21:35;4.45;;;2.30;;
53503;SDS011;39387;50.998;22.340;2023-03-14T11:27:03;4.30;;;2.00;;
53503;SDS011;39387;50.998;22.340;2023-03-14T11:29:35;2.42;;;1.83;;
53503;SDS011;39387;50.998;22.340;2023-03-14T11:32:10;4.10;;;2.17;;
53503;SDS011;39387;50.998;22.340;2023-03-14T11:34:41;3.33;;;2.28;;
53503;SDS011;39387;50.998;22.340;2023-03-14T11:37:14;2.42;;;1.85;;
53503;SDS011;39387;50.998;22.340;2023-03-14T11:39:44;4.45;;;2.10;;
53503;SDS011;39387;50.998;22.340;2023-03-14T11:42:16;4.40;;;2.40;;
53503;SDS011;39387;50.998;22.340;2023-03-14T11:44:46;3.75;;;2.10;;
53503;SDS011;39387;50.998;22.340;2023-03-14T11:47:17;3.95;;;2.35;;
53503;SDS011;39387;50.998;22.340;2023-03-14T11:49:48;3.45;;;2.15;;
53503;SDS011;39387;50.998;22.340;2023-03-14T11:52:20;2.17;;;1.60;;
53503;SDS011;39387;50.998;22.340;2023-03-14T11:54:51;3.47;;;2.20;;
53503;SDS011;39387;50.998;22.340;2023-03-14T11:57:22;3.58;;;2.28;;
53503;SDS011;39387;50.998;22.340;2023-03-14T11:59:53;6.13;;;2.47;;
53503;SDS011;39387;50.998;22.340;2023-03-14T12:02:25;3.55;;;2.42;;
53503;SDS011;39387;50.998;22.340;2023-03-14T12:05:14;3.08;;;2.13;;
53503;SDS011;39387;50.998;22.340;2023-03-14T12:08:01;3.00;;;2.30;;
53503;SDS011;39387;50.998;22.340;2023-03-14T12:10:46;4.20;;;2.28;;
53503;SDS011;39387;50.998;22.340;2023-03-14T12:13:16;3.88;;;2.03;;
53503;SDS011;39387;50.998;22.340;2023-03-14T12:15:47;2.50;;;2.10;;
53503;SDS011;39387;50.998;22.340;2023-03-14T12:18:18;2.45;;;1.88;;
53503;SDS011;39387;50.998;22.340;2023-03-14T12:20:50;2.47;;;2.25;;
53503;SDS011;39387;50.998;22.340;2023-03-14T12:23:19;3.38;;;2.10;;
53503;SDS011;39387;50.998;22.340;2023-03-14T12:25:46;2.33;;;1.92;;
53503;SDS011;39387;50.998;22.340;2023-03-14T12:28:18;4.07;;;2.08;;
53503;SDS011;39387;50.998;22.340;2023-03-14T12:30:48;5.88;;;2.78;;
53503;SDS011;39387;50.998;22.340;2023-03-14T12:36:04;4.45;;;2.75;;
53503;SDS011;39387;50.998;22.340;2023-03-14T12:38:58;6.20;;;3.60;;
53503;SDS011;39387;50.998;22.340;2023-03-14T12:41:35;3.63;;;3.00;;
53503;SDS011;39387;50.998;22.340;2023-03-14T12:50:26;3.50;;;2.30;;
53503;SDS011;39387;50.998;22.340;2023-03-14T12:53:06;3.78;;;2.55;;
53503;SDS011;39387;50.998;22.340;2023-03-14T12:56:05;3.55;;;2.53;;
53503;SDS011;39387;50.998;22.340;2023-03-14T12:58:37;5.82;;;3.00;;
53503;SDS011;39387;50.998;22.340;2023-03-14T13:01:06;5.47;;;2.60;;
53503;SDS011;39387;50.998;22.340;2023-03-14T13:03:45;3.72;;;2.72;;
53503;SDS011;39387;50.998;22.340;2023-03-14T13:06:13;4.63;;;2.90;;
53503;SDS011;39387;50.998;22.340;2023-03-14T13:09:34;4.90;;;3.10;;
53503;SDS011;39387;50.998;22.340;2023-03-14T13:12:27;3.17;;;2.83;;
53503;SDS011;39387;50.998;22.340;2023-03-14T13:14:59;6.45;;;3.70;;
53503;SDS011;39387;50.998;22.340;2023-03-14T13:19:59;5.32;;;3.38;;
53503;SDS011;39387;50.998;22.340;2023-03-14T13:22:30;6.60;;;3.88;;
53503;SDS011;39387;50.998;22.340;2023-03-14T13:25:00;4.93;;;3.13;;
53503;SDS011;39387;50.998;22.340;2023-03-14T13:27:30;5.40;;;3.80;;
53503;SDS011;39387;50.998;22.340;2023-03-14T13:29:58;4.32;;;3.20;;
53503;SDS011;39387;50.998;22.340;2023-03-14T13:32:26;4.65;;;3.40;;
53503;SDS011;39387;50.998;22.340;2023-03-14T13:34:55;4.93;;;2.72;;
53503;SDS011;39387;50.998;22.340;2023-03-14T13:37:25;4.75;;;3.08;;
53503;SDS011;39387;50.998;22.340;2023-03-14T13:39:53;5.07;;;3.17;;
53503;SDS011;39387;50.998;22.340;2023-03-14T13:42:24;4.38;;;2.47;;
53503;SDS011;39387;50.998;22.340;2023-03-14T13:44:52;4.07;;;2.45;;
53503;SDS011;39387;50.998;22.340;2023-03-14T13:47:21;3.97;;;2.15;;
53503;SDS011;39387;50.998;22.340;2023-03-14T13:49:49;4.07;;;2.70;;
53503;SDS011;39387;50.998;22.340;2023-03-14T13:52:21;5.43;;;2.28;;
53503;SDS011;39387;50.998;22.340;2023-03-14T13:54:56;3.40;;;2.33;;
53503;SDS011;39387;50.998;22.340;2023-03-14T13:57:24;5.00;;;2.72;;
53503;SDS011;39387;50.998;22.340;2023-03-14T14:00:01;5.95;;;3.10;;
53503;SDS011;39387;50.998;22.340;2023-03-14T14:02:33;3.85;;;2.58;;
53503;SDS011;39387;50.998;22.340;2023-03-14T14:05:01;4.70;;;2.80;;
53503;SDS011;39387;50.998;22.340;2023-03-14T14:07:31;6.50;;;3.10;;
53503;SDS011;39387;50.998;22.340;2023-03-14T14:09:58;5.18;;;2.95;;
53503;SDS011;39387;50.998;22.340;2023-03-14T14:12:28;6.55;;;3.00;;
53503;SDS011;39387;50.998;22.340;2023-03-14T14:14:57;5.18;;;2.90;;
53503;SDS011;39387;50.998;22.340;2023-03-14T14:17:26;4.53;;;3.25;;
53503;SDS011;39387;50.998;22.340;2023-03-14T14:19:56;4.10;;;3.00;;
53503;SDS011;39387;50.998;22.340;2023-03-14T14:22:24;4.82;;;3.10;;
53503;SDS011;39387;50.998;22.340;2023-03-14T14:24:53;4.97;;;3.22;;
53503;SDS011;39387;50.998;22.340;2023-03-14T14:27:24;5.45;;;3.70;;
53503;SDS011;39387;50.998;22.340;2023-03-14T14:29:57;5.32;;;3.00;;
53503;SDS011;39387;50.998;22.340;2023-03-14T14:32:26;6.75;;;3.47;;
53503;SDS011;39387;50.998;22.340;2023-03-14T14:34:57;6.38;;;3.33;;
53503;SDS011;39387;50.998;22.340;2023-03-14T14:37:26;6.88;;;3.63;;
53503;SDS011;39387;50.998;22.340;2023-03-14T14:39:56;4.93;;;3.53;;
53503;SDS011;39387;50.998;22.340;2023-03-14T14:42:26;6.85;;;3.55;;
53503;SDS011;39387;50.998;22.340;2023-03-14T14:44:55;4.85;;;3.42;;
53503;SDS011;39387;50.998;22.340;2023-03-14T14:47:24;5.50;;;3.35;;
53503;SDS011;39387;50.998;22.340;2023-03-14T14:49:53;4.78;;;3.08;;
53503;SDS011;39387;50.998;22.340;2023-03-14T14:52:21;4.88;;;3.42;;
53503;SDS011;39387;50.998;22.340;2023-03-14T14:54:59;4.50;;;3.35;;
53503;SDS011;39387;50.998;22.340;2023-03-14T14:57:28;3.88;;;2.80;;
53503;SDS011;39387;50.998;22.340;2023-03-14T15:00:02;6.28;;;3.55;;
53503;SDS011;39387;50.998;22.340;2023-03-14T15:02:37;6.32;;;4.00;;
53503;SDS011;39387;50.998;22.340;2023-03-14T15:05:11;7.57;;;4.85;;
53503;SDS011;39387;50.998;22.340;2023-03-14T15:07:39;7.03;;;4.07;;
53503;SDS011;39387;50.998;22.340;2023-03-14T15:10:11;9.60;;;4.72;;